Time;durP1;ratioP1;P1;durP2;ratioP2;P2;SDS_P1;SDS_P2;PMS_P1;PMS_P2;Temp;Humidity;BMP_temperature;BMP_pressure;BME280_temperature;BME280_humidity;BME280_pressure;Samples;Min_cycle;Max_cycle;Signal;HPM_P1;HPM_P2
2022/10/30 00:00:13;;;;;;;27.10;12.73;;;13.70;99.90;;;;;;4998452;28;20037;-50
2022/10/30 00:02:38;;;;;;;25.27;13.05;;;13.60;99.90;;;;;;5004548;28;20038;-51
2022/10/30 00:05:05;;;;;;;27.25;13.50;;;13.60;99.90;;;;;;5004312;28;20061;-46
2022/10/30 00:07:31;;;;;;;26.25;12.82;;;13.60;99.90;;;;;;5006962;28;20082;-48
2022/10/30 00:09:56;;;;;;;23.20;13.00;;;13.40;99.90;;;;;;5002267;28;20111;-47
2022/10/30 00:12:22;;;;;;;29.30;13.65;;;13.60;99.90;;;;;;5006415;28;20049;-47
2022/10/30 00:14:48;;;;;;;27.05;12.85;;;13.50;99.90;;;;;;5006378;28;20044;-48
2022/10/30 00:17:13;;;;;;;25.15;12.63;;;13.50;99.90;;;;;;5010098;28;20090;-46
2022/10/30 00:19:39;;;;;;;22.70;12.50;;;13.40;99.90;;;;;;5003048;28;20956;-47
2022/10/30 00:22:05;;;;;;;24.15;12.50;;;13.40;99.90;;;;;;5003840;28;20568;-46
2022/10/30 00:24:31;;;;;;;26.15;13.82;;;13.50;99.90;;;;;;5006177;28;20050;-46
2022/10/30 00:26:56;;;;;;;26.60;12.73;;;13.20;99.90;;;;;;5001917;28;20088;-46
2022/10/30 00:29:23;;;;;;;26.58;12.18;;;14.00;99.90;;;;;;5007007;28;20061;-50
2022/10/30 00:31:49;;;;;;;23.80;13.25;;;13.50;99.90;;;;;;5003300;28;20173;-46
2022/10/30 00:34:15;;;;;;;21.17;12.70;;;13.20;99.90;;;;;;5008089;28;20742;-46
2022/10/30 00:36:41;;;;;;;26.75;13.00;;;13.40;99.90;;;;;;5008579;28;20041;-48
2022/10/30 00:39:06;;;;;;;26.70;12.23;;;13.30;99.90;;;;;;5006800;28;20034;-50
2022/10/30 00:41:32;;;;;;;28.58;13.80;;;13.20;99.90;;;;;;5006617;28;20106;-48
2022/10/30 00:43:58;;;;;;;25.80;12.20;;;13.30;99.90;;;;;;5004210;28;20050;-46
2022/10/30 00:46:31;;;;;;;23.08;13.32;;;13.30;99.90;;;;;;5008584;28;20192;-46
2022/10/30 00:49:14;;;;;;;23.67;12.35;;;14.20;99.90;;;;;;5004886;28;20050;-44
2022/10/30 00:51:46;;;;;;;24.58;12.48;;;13.10;99.90;;;;;;5007659;28;20220;-46
2022/10/30 00:54:15;;;;;;;20.98;12.68;;;13.20;99.90;;;;;;5006706;28;20050;-45
2022/10/30 00:56:42;;;;;;;26.85;13.55;;;13.10;99.90;;;;;;5006466;28;20079;-45
2022/10/30 00:59:12;;;;;;;21.55;12.82;;;13.20;99.90;;;;;;5004203;28;20044;-51
2022/10/30 01:01:43;;;;;;;24.05;13.43;;;13.20;99.90;;;;;;5004301;28;20432;-48
2022/10/30 01:04:10;;;;;;;21.63;12.05;;;13.20;99.90;;;;;;5006266;28;20041;-48
2022/10/30 01:06:38;;;;;;;24.30;13.25;;;13.10;99.90;;;;;;4998089;28;20515;-49
2022/10/30 01:09:04;;;;;;;22.13;12.23;;;13.20;99.90;;;;;;5003415;28;20077;-50
2022/10/30 01:11:30;;;;;;;27.30;13.18;;;14.90;99.90;;;;;;5000344;28;20400;-49
2022/10/30 01:14:03;;;;;;;26.05;13.90;;;13.20;99.90;;;;;;4999858;28;20053;-48
2022/10/30 01:16:51;;;;;;;23.20;13.00;;;13.20;99.90;;;;;;5005707;28;20053;-51
2022/10/30 01:19:28;;;;;;;21.55;12.60;;;13.20;99.90;;;;;;5004670;28;20064;-46
2022/10/30 01:22:09;;;;;;;28.52;13.05;;;13.00;99.90;;;;;;5003188;28;20550;-46
2022/10/30 01:24:49;;;;;;;21.23;12.95;;;13.20;99.90;;;;;;5005503;28;20045;-46
2022/10/30 01:27:38;;;;;;;24.85;12.82;;;12.90;99.90;;;;;;5002698;28;20668;-48
2022/10/30 01:30:40;;;;;;;23.05;13.30;;;13.00;99.90;;;;;;5004355;28;20048;-48
2022/10/30 01:33:36;;;;;;;22.48;12.25;;;12.90;99.90;;;;;;4973560;28;20042;-50
2022/10/30 01:36:14;;;;;;;25.42;13.05;;;13.00;99.90;;;;;;5000285;28;20042;-49
2022/10/30 01:39:10;;;;;;;22.42;13.93;;;12.90;99.90;;;;;;5007118;28;20042;-49
2022/10/30 01:41:36;;;;;;;27.17;13.77;;;12.90;99.90;;;;;;5004209;28;20061;-48
2022/10/30 01:44:11;;;;;;;27.10;13.35;;;12.80;99.90;;;;;;5003534;28;20042;-48
2022/10/30 01:46:43;;;;;;;28.58;14.43;;;12.80;99.90;;;;;;5003539;28;20499;-49
2022/10/30 01:49:26;;;;;;;28.42;13.52;;;12.90;99.90;;;;;;5007123;28;20053;-45
2022/10/30 01:51:54;;;;;;;28.27;13.07;;;12.80;99.90;;;;;;5002777;28;20041;-46
2022/10/30 01:54:41;;;;;;;25.20;14.93;;;13.10;99.90;;;;;;5003258;28;20049;-46
2022/10/30 01:57:16;;;;;;;26.70;14.45;;;13.10;99.90;;;;;;5003700;28;20044;-46
2022/10/30 01:59:49;;;;;;;30.30;14.35;;;12.90;99.90;;;;;;5002891;28;20061;-48
2022/10/30 02:02:15;;;;;;;30.60;14.63;;;12.90;99.90;;;;;;5006293;28;20511;-45
2022/10/30 02:04:41;;;;;;;23.65;13.68;;;13.10;99.90;;;;;;5004316;28;20041;-48
2022/10/30 02:07:07;;;;;;;28.35;14.10;;;13.00;99.90;;;;;;5005177;28;20040;-45
2022/10/30 02:09:33;;;;;;;25.80;13.43;;;13.00;99.90;;;;;;5004485;28;20042;-47
2022/10/30 02:12:00;;;;;;;25.30;13.82;;;13.20;99.90;;;;;;5006510;28;20037;-48
2022/10/30 02:14:31;;;;;;;31.83;14.05;;;13.10;99.90;;;;;;5000754;28;20130;-48
2022/10/30 02:17:01;;;;;;;26.43;13.30;;;13.20;99.90;;;;;;5005949;28;20049;-45
2022/10/30 02:19:27;;;;;;;27.92;13.02;;;13.20;99.90;;;;;;5005629;28;20033;-48
2022/10/30 02:21:53;;;;;;;28.05;13.80;;;13.30;99.90;;;;;;5003947;28;20499;-46
2022/10/30 02:24:19;;;;;;;24.85;13.43;;;13.30;99.90;;;;;;5006526;28;20182;-46
2022/10/30 02:26:45;;;;;;;24.40;13.35;;;13.10;99.90;;;;;;5005262;28;20048;-46
2022/10/30 02:29:11;;;;;;;22.77;12.85;;;13.20;99.90;;;;;;5002388;28;20095;-46
2022/10/30 02:31:37;;;;;;;25.58;13.32;;;13.20;99.90;;;;;;5003749;28;20072;-46
2022/10/30 02:34:03;;;;;;;29.13;13.55;;;13.10;99.90;;;;;;5006220;28;20389;-47
2022/10/30 02:36:28;;;;;;;27.63;13.13;;;13.20;99.90;;;;;;5002078;28;20057;-45
2022/10/30 02:38:54;;;;;;;30.98;13.07;;;13.20;99.90;;;;;;5000634;28;20042;-47
2022/10/30 02:41:23;;;;;;;34.38;13.15;;;13.20;99.90;;;;;;5003144;28;20065;-46
2022/10/30 02:43:52;;;;;;;22.67;13.90;;;13.30;99.90;;;;;;5002602;28;20156;-47
2022/10/30 02:46:18;;;;;;;24.50;12.73;;;15.40;99.90;;;;;;5001491;28;20129;-46
2022/10/30 02:48:44;;;;;;;25.27;13.77;;;13.20;99.90;;;;;;5000856;28;20069;-48
2022/10/30 02:51:09;;;;;;;23.15;12.98;;;13.10;99.90;;;;;;4999416;28;20044;-46
2022/10/30 02:53:35;;;;;;;30.60;13.68;;;13.30;99.90;;;;;;5002004;28;20769;-49
2022/10/30 02:56:09;;;;;;;26.35;12.98;;;13.20;99.90;;;;;;5004135;28;21129;-46
2022/10/30 02:58:35;;;;;;;22.55;12.88;;;13.10;99.90;;;;;;5005210;28;20097;-49
2022/10/30 03:01:19;;;;;;;26.58;13.57;;;13.30;99.90;;;;;;5001638;28;20038;-47
2022/10/30 03:03:45;;;;;;;23.88;13.15;;;13.20;99.90;;;;;;5004043;28;20498;-49
2022/10/30 03:06:14;;;;;;;25.88;13.60;;;13.00;99.90;;;;;;5001052;28;20398;-49
2022/10/30 03:08:40;;;;;;;25.80;13.93;;;13.10;99.90;;;;;;5003298;28;20181;-48
2022/10/30 03:11:17;;;;;;;25.33;14.27;;;13.80;99.90;;;;;;5002632;28;20121;-48
2022/10/30 03:13:45;;;;;;;26.23;13.30;;;13.00;99.90;;;;;;5001323;28;20093;-47
2022/10/30 03:16:16;;;;;;;25.10;13.10;;;12.90;99.90;;;;;;5004092;28;20448;-46
2022/10/30 03:18:42;;;;;;;26.95;13.30;;;13.00;99.90;;;;;;5001632;28;20052;-47
2022/10/30 03:21:11;;;;;;;28.13;13.70;;;13.10;99.90;;;;;;5003644;28;20046;-49
2022/10/30 03:23:37;;;;;;;21.63;12.95;;;13.10;99.90;;;;;;4999659;28;20050;-49
2022/10/30 03:26:03;;;;;;;26.65;14.40;;;12.90;99.90;;;;;;5001767;28;20594;-48
2022/10/30 03:28:30;;;;;;;25.38;12.75;;;13.10;99.90;;;;;;5002413;28;20059;-47
2022/10/30 03:31:04;;;;;;;21.70;13.50;;;13.00;99.90;;;;;;5003698;28;20521;-47
2022/10/30 03:33:31;;;;;;;23.45;12.90;;;13.10;99.90;;;;;;5001683;28;20089;-47
2022/10/30 03:35:57;;;;;;;24.40;14.23;;;13.00;99.90;;;;;;5003902;28;20449;-48
2022/10/30 03:38:22;;;;;;;24.95;13.65;;;13.10;99.90;;;;;;5008303;28;21018;-45
2022/10/30 03:40:48;;;;;;;26.88;14.57;;;13.10;99.90;;;;;;5004976;28;20059;-46
2022/10/30 03:43:14;;;;;;;23.33;13.68;;;13.30;99.90;;;;;;5006808;28;20041;-45
2022/10/30 03:45:44;;;;;;;28.45;13.43;;;13.10;99.90;;;;;;5005507;28;20049;-47
2022/10/30 03:48:10;;;;;;;26.42;14.45;;;13.40;99.90;;;;;;5005303;28;20149;-47
2022/10/30 03:50:35;;;;;;;27.58;13.98;;;14.60;99.90;;;;;;5004527;28;20041;-50
2022/10/30 03:53:02;;;;;;;24.25;13.43;;;13.20;99.90;;;;;;5005370;28;20053;-49
2022/10/30 03:55:28;;;;;;;24.27;13.00;;;13.10;99.90;;;;;;5007355;28;20793;-46
2022/10/30 03:57:53;;;;;;;28.58;13.55;;;13.10;99.90;;;;;;5004891;28;20200;-46
2022/10/30 04:00:19;;;;;;;25.27;13.00;;;13.10;99.90;;;;;;5006011;28;20047;-50
2022/10/30 04:02:50;;;;;;;25.17;13.60;;;13.10;99.90;;;;;;5005852;28;20160;-50
2022/10/30 04:05:18;;;;;;;25.67;13.95;;;13.00;99.90;;;;;;5006410;28;20065;-50
2022/10/30 04:07:44;;;;;;;28.98;13.80;;;12.80;99.90;;;;;;5005186;28;21305;-47
2022/10/30 04:10:11;;;;;;;26.45;13.65;;;14.20;99.90;;;;;;5006524;28;20120;-47
2022/10/30 04:12:37;;;;;;;30.17;13.98;;;13.00;99.90;;;;;;5006604;28;20048;-47
2022/10/30 04:15:05;;;;;;;31.13;14.27;;;12.80;99.90;;;;;;5004570;28;20465;-49
2022/10/30 04:17:30;;;;;;;21.60;13.65;;;13.10;99.90;;;;;;5008105;28;20077;-48
2022/10/30 04:19:56;;;;;;;27.65;13.75;;;12.90;99.90;;;;;;5004563;28;20117;-50
2022/10/30 04:22:22;;;;;;;23.30;14.48;;;12.90;99.90;;;;;;5002426;28;20045;-50
2022/10/30 04:24:48;;;;;;;31.42;14.07;;;15.00;99.90;;;;;;5002857;28;20046;-48
2022/10/30 04:27:15;;;;;;;27.05;14.02;;;12.80;99.90;;;;;;5005371;28;20098;-49
2022/10/30 04:29:43;;;;;;;32.90;15.35;;;13.00;99.90;;;;;;5007249;28;20652;-48
2022/10/30 04:32:09;;;;;;;28.15;14.75;;;12.90;99.90;;;;;;5004157;28;20500;-49
2022/10/30 04:34:35;;;;;;;27.25;14.45;;;12.90;99.90;;;;;;5000620;28;20136;-48
2022/10/30 04:37:01;;;;;;;21.83;14.35;;;12.70;99.90;;;;;;5004255;28;20041;-46
2022/10/30 04:39:27;;;;;;;30.38;14.07;;;12.70;99.90;;;;;;5006878;28;20227;-47
2022/10/30 04:41:52;;;;;;;25.60;13.98;;;12.60;99.90;;;;;;5007182;28;21492;-46
2022/10/30 04:44:18;;;;;;;25.40;14.30;;;12.70;99.90;;;;;;5005405;28;20049;-46
2022/10/30 04:46:44;;;;;;;26.48;15.20;;;12.50;99.90;;;;;;5007706;28;20098;-46
2022/10/30 04:49:10;;;;;;;26.95;14.13;;;12.50;99.90;;;;;;5004148;28;20049;-46
2022/10/30 04:51:35;;;;;;;30.73;14.90;;;12.50;99.90;;;;;;5005169;28;20034;-49
2022/10/30 04:54:01;;;;;;;35.33;15.02;;;12.50;99.90;;;;;;5004697;28;20385;-46
2022/10/30 04:56:27;;;;;;;29.80;14.23;;;12.50;99.90;;;;;;5006554;28;20515;-46
2022/10/30 04:58:53;;;;;;;28.17;15.43;;;12.40;99.90;;;;;;5006112;28;20049;-48
2022/10/30 05:01:18;;;;;;;30.58;15.65;;;13.60;99.90;;;;;;5005156;28;20038;-48
2022/10/30 05:03:44;;;;;;;35.05;15.70;;;12.30;99.90;;;;;;5008985;28;20040;-46
2022/10/30 05:06:25;;;;;;;33.17;16.20;;;12.20;99.90;;;;;;5004655;28;20769;-49
2022/10/30 05:08:51;;;;;;;26.95;14.35;;;12.40;99.90;;;;;;5004944;28;20069;-49
2022/10/30 05:11:17;;;;;;;30.67;15.93;;;12.10;99.90;;;;;;5003905;28;20145;-47
2022/10/30 05:13:43;;;;;;;29.45;14.07;;;12.20;99.90;;;;;;5005090;28;20076;-49
2022/10/30 05:16:09;;;;;;;27.90;15.70;;;12.30;99.90;;;;;;5006458;28;20049;-46
2022/10/30 05:18:34;;;;;;;27.77;16.08;;;12.10;99.90;;;;;;5002345;28;20081;-49
2022/10/30 05:21:00;;;;;;;32.55;15.55;;;12.00;99.90;;;;;;5005766;28;20033;-48
2022/10/30 05:23:26;;;;;;;32.17;14.70;;;12.70;99.90;;;;;;5004073;28;20037;-47
2022/10/30 05:25:52;;;;;;;29.67;16.02;;;13.70;99.90;;;;;;5008250;28;20041;-48
2022/10/30 05:28:18;;;;;;;30.65;16.65;;;12.00;99.90;;;;;;5006174;28;20033;-47
2022/10/30 05:30:43;;;;;;;32.85;15.23;;;12.10;99.90;;;;;;5005605;28;20038;-47
2022/10/30 05:33:10;;;;;;;29.38;15.20;;;12.00;99.90;;;;;;5006139;28;20041;-49
2022/10/30 05:35:37;;;;;;;33.97;16.67;;;12.00;99.90;;;;;;5004248;28;20041;-46
2022/10/30 05:38:04;;;;;;;32.65;17.38;;;11.90;99.90;;;;;;5006193;28;20090;-47
2022/10/30 05:40:31;;;;;;;36.42;16.42;;;12.80;99.90;;;;;;5003208;28;20079;-50
2022/10/30 05:42:57;;;;;;;34.55;16.70;;;12.00;99.90;;;;;;5006521;28;20060;-47
2022/10/30 05:45:23;;;;;;;30.38;16.95;;;11.90;99.90;;;;;;5005994;28;20511;-48
2022/10/30 05:47:55;;;;;;;29.10;16.13;;;12.10;99.90;;;;;;4999525;28;20399;-48
2022/10/30 05:50:21;;;;;;;32.05;16.92;;;11.80;99.90;;;;;;5002360;28;20054;-48
2022/10/30 05:52:47;;;;;;;31.63;16.75;;;12.00;99.90;;;;;;5003603;28;20511;-46
2022/10/30 05:55:13;;;;;;;31.23;16.67;;;11.90;99.90;;;;;;5001905;28;20452;-50
2022/10/30 05:57:38;;;;;;;30.27;18.20;;;11.80;99.90;;;;;;5002454;28;20408;-46
2022/10/30 06:00:05;;;;;;;30.60;17.65;;;12.50;99.90;;;;;;5004038;28;20071;-47
2022/10/30 06:02:30;;;;;;;39.10;17.45;;;11.70;99.90;;;;;;5004979;28;20079;-47
2022/10/30 06:04:56;;;;;;;26.50;16.20;;;11.70;99.90;;;;;;5005962;28;20144;-46
2022/10/30 06:07:22;;;;;;;36.33;16.83;;;11.90;99.90;;;;;;5007204;28;20037;-46
2022/10/30 06:09:47;;;;;;;30.27;16.27;;;11.70;99.90;;;;;;5004567;28;20049;-48
2022/10/30 06:12:13;;;;;;;30.85;17.13;;;11.80;99.90;;;;;;5003255;28;20030;-46
2022/10/30 06:14:39;;;;;;;29.65;16.20;;;11.70;99.90;;;;;;5003179;28;20062;-46
2022/10/30 06:17:04;;;;;;;37.75;17.98;;;11.80;99.90;;;;;;5006374;28;20038;-48
2022/10/30 06:19:30;;;;;;;30.38;17.38;;;10.60;99.90;;;;;;5004597;28;20049;-47
2022/10/30 06:21:56;;;;;;;31.13;17.30;;;13.00;99.90;;;;;;5001774;28;20052;-51
2022/10/30 06:24:21;;;;;;;26.67;16.63;;;11.80;99.90;;;;;;4999962;28;20262;-48
2022/10/30 06:26:48;;;;;;;31.85;16.15;;;11.70;99.90;;;;;;5005168;28;20128;-48
2022/10/30 06:29:14;;;;;;;32.22;16.90;;;11.60;99.90;;;;;;5002006;28;20037;-46
2022/10/30 06:31:39;;;;;;;31.83;16.73;;;11.60;99.90;;;;;;5004405;28;20552;-46
2022/10/30 06:34:05;;;;;;;31.65;17.85;;;13.70;99.90;;;;;;5004813;28;20049;-46
2022/10/30 06:36:31;;;;;;;33.65;17.08;;;12.40;99.90;;;;;;5005431;28;20052;-46
2022/10/30 06:38:57;;;;;;;31.55;18.10;;;11.50;99.90;;;;;;5002553;28;20044;-47
2022/10/30 06:41:22;;;;;;;37.85;18.55;;;11.40;99.90;;;;;;5004226;28;20467;-56
2022/10/30 06:43:48;;;;;;;31.92;17.05;;;11.70;99.90;;;;;;5000183;28;20124;-50
2022/10/30 06:46:14;;;;;;;30.40;17.77;;;11.40;99.90;;;;;;5003701;28;20042;-45
2022/10/30 06:48:39;;;;;;;33.90;18.15;;;11.40;99.90;;;;;;5002558;28;20037;-47
2022/10/30 06:51:05;;;;;;;34.22;16.65;;;12.10;99.90;;;;;;4999954;28;20045;-49
2022/10/30 06:53:31;;;;;;;31.67;18.42;;;11.60;99.90;;;;;;5002972;28;20522;-47
2022/10/30 06:56:01;;;;;;;31.92;17.92;;;12.90;99.90;;;;;;5002812;28;20045;-48
2022/10/30 06:58:28;;;;;;;32.05;17.33;;;12.20;99.90;;;;;;5003562;28;20110;-47
2022/10/30 07:00:54;;;;;;;32.63;17.73;;;13.50;99.90;;;;;;4999298;28;20288;-46
2022/10/30 07:03:20;;;;;;;30.83;16.50;;;11.50;99.90;;;;;;5001450;28;20052;-46
2022/10/30 07:05:46;;;;;;;30.38;16.38;;;11.90;99.90;;;;;;5001627;28;20050;-48
2022/10/30 07:08:12;;;;;;;25.25;16.52;;;12.70;99.90;;;;;;4997238;28;20098;-46
2022/10/30 07:10:38;;;;;;;37.58;17.83;;;11.90;99.90;;;;;;5004028;28;20037;-47
2022/10/30 07:13:04;;;;;;;35.13;16.85;;;12.30;99.90;;;;;;5001034;28;20045;-48
2022/10/30 07:15:30;;;;;;;31.15;16.70;;;11.80;99.90;;;;;;5007386;28;20377;-48
2022/10/30 07:17:57;;;;;;;27.70;16.27;;;12.10;99.90;;;;;;5006488;28;20158;-48
2022/10/30 07:20:24;;;;;;;30.67;16.45;;;14.30;99.90;;;;;;5004922;28;20084;-47
2022/10/30 07:22:50;;;;;;;28.45;16.55;;;12.20;99.90;;;;;;5009041;28;21040;-48
2022/10/30 07:25:16;;;;;;;29.58;16.17;;;12.20;99.90;;;;;;5005644;28;20563;-47
2022/10/30 07:27:47;;;;;;;32.17;16.13;;;13.80;99.90;;;;;;5006696;28;20419;-49
2022/10/30 07:30:14;;;;;;;33.15;16.70;;;12.20;99.90;;;;;;5007787;28;20098;-48
2022/10/30 07:32:40;;;;;;;31.25;16.13;;;12.30;99.90;;;;;;5006437;28;20049;-46
2022/10/30 07:35:07;;;;;;;31.38;16.60;;;12.50;99.90;;;;;;5007731;28;20980;-51
2022/10/30 07:37:33;;;;;;;31.42;16.05;;;12.60;99.90;;;;;;5008494;28;20415;-48
2022/10/30 07:39:59;;;;;;;27.65;15.45;;;12.80;99.90;;;;;;5005638;28;20106;-47
2022/10/30 07:42:25;;;;;;;26.42;14.25;;;12.90;99.90;;;;;;5004553;28;20042;-49
2022/10/30 07:44:51;;;;;;;23.45;14.38;;;14.00;99.90;;;;;;5007209;28;20387;-51
2022/10/30 07:47:16;;;;;;;25.90;14.05;;;13.20;99.90;;;;;;5008660;28;20132;-50
2022/10/30 07:49:42;;;;;;;25.05;15.23;;;14.60;99.90;;;;;;5006071;28;20064;-51
2022/10/30 07:52:08;;;;;;;27.92;14.55;;;13.40;99.90;;;;;;5006529;28;20049;-47
2022/10/30 07:54:33;;;;;;;25.55;14.35;;;13.80;99.90;;;;;;5006671;28;20056;-46
2022/10/30 07:56:59;;;;;;;24.38;13.38;;;13.90;99.90;;;;;;5008579;28;20102;-46
2022/10/30 07:59:25;;;;;;;21.90;13.90;;;14.10;99.90;;;;;;5008516;28;20142;-48
2022/10/30 08:01:51;;;;;;;23.23;13.38;;;14.20;99.90;;;;;;5006712;28;20069;-48
2022/10/30 08:04:16;;;;;;;24.48;12.45;;;14.20;99.90;;;;;;5006137;28;20060;-49
2022/10/30 08:06:42;;;;;;;28.15;13.27;;;14.40;99.90;;;;;;5007520;28;20034;-48
2022/10/30 08:09:08;;;;;;;27.27;14.07;;;14.00;99.90;;;;;;5008029;28;20050;-48
2022/10/30 08:11:34;;;;;;;28.10;14.93;;;14.10;99.90;;;;;;5005720;28;20045;-45
2022/10/30 08:14:00;;;;;;;23.33;13.30;;;14.10;99.90;;;;;;5004369;28;20038;-56
2022/10/30 08:16:26;;;;;;;21.58;13.60;;;15.80;99.90;;;;;;4987839;28;20037;-56
2022/10/30 08:18:52;;;;;;;29.88;13.77;;;14.20;99.90;;;;;;4994951;28;20049;-57
2022/10/30 08:21:18;;;;;;;23.38;13.77;;;14.10;99.90;;;;;;5007100;28;20103;-56
2022/10/30 08:23:44;;;;;;;21.60;13.77;;;14.10;99.90;;;;;;4999161;28;20538;-55
2022/10/30 08:26:10;;;;;;;25.08;13.52;;;14.20;99.90;;;;;;5004445;28;20064;-56
2022/10/30 08:28:35;;;;;;;23.25;13.13;;;14.40;99.90;;;;;;5004645;28;20095;-57
2022/10/30 08:31:02;;;;;;;25.05;12.98;;;14.50;99.90;;;;;;5007127;28;20041;-56
2022/10/30 08:33:28;;;;;;;22.90;12.68;;;14.50;99.90;;;;;;5000916;28;20124;-57
2022/10/30 08:35:56;;;;;;;23.58;12.88;;;14.70;99.90;;;;;;5004344;28;20034;-56
2022/10/30 08:38:22;;;;;;;26.58;13.35;;;14.70;99.90;;;;;;5004648;28;20056;-56
2022/10/30 08:40:48;;;;;;;27.42;12.88;;;14.90;99.90;;;;;;5002459;28;20502;-57
2022/10/30 08:43:14;;;;;;;21.35;12.82;;;15.10;99.90;;;;;;5007088;28;20057;-55
2022/10/30 08:45:40;;;;;;;23.15;13.57;;;15.10;99.90;;;;;;5001627;28;20034;-56
2022/10/30 08:48:09;;;;;;;21.40;12.30;;;15.10;99.90;;;;;;5001898;28;20557;-56
2022/10/30 08:50:34;;;;;;;24.35;12.65;;;15.30;99.90;;;;;;5005254;28;20120;-56
2022/10/30 08:53:02;;;;;;;23.20;13.32;;;15.40;99.90;;;;;;5006898;28;20624;-55
2022/10/30 08:55:30;;;;;;;24.02;12.52;;;16.00;99.90;;;;;;5006304;28;20077;-55
2022/10/30 08:57:56;;;;;;;24.27;12.18;;;16.40;99.90;;;;;;5006098;28;20655;-56
2022/10/30 09:00:22;;;;;;;22.67;12.55;;;16.80;99.90;;;;;;5004448;28;20060;-56
2022/10/30 09:02:48;;;;;;;27.52;14.35;;;17.30;99.90;;;;;;5003205;28;20044;-55
2022/10/30 09:05:14;;;;;;;23.05;11.82;;;17.50;96.20;;;;;;5004458;28;20045;-55
2022/10/30 09:07:39;;;;;;;24.33;12.73;;;17.90;91.30;;;;;;5005904;28;20052;-56
2022/10/30 09:10:06;;;;;;;22.85;12.10;;;18.70;79.20;;;;;;5004647;28;21164;-56
2022/10/30 09:12:31;;;;;;;22.25;13.02;;;19.00;66.00;;;;;;4999660;28;20045;-56
2022/10/30 09:14:57;;;;;;;25.98;13.07;;;19.10;63.10;;;;;;5000761;28;20041;-56
2022/10/30 09:17:23;;;;;;;18.23;11.73;;;19.40;58.10;;;;;;4998599;28;20042;-56
2022/10/30 09:19:49;;;;;;;24.13;11.52;;;20.00;40.30;;;;;;4992648;28;20619;-56
2022/10/30 09:22:15;;;;;;;21.38;11.63;;;20.10;28.70;;;;;;4999968;28;20060;-56
2022/10/30 09:24:41;;;;;;;24.42;11.88;;;19.80;30.00;;;;;;5003436;28;20269;-56
2022/10/30 09:27:06;;;;;;;21.55;11.85;;;19.60;37.10;;;;;;5002721;28;20048;-56
2022/10/30 09:29:34;;;;;;;26.98;12.35;;;19.50;45.70;;;;;;4994886;28;20080;-56
2022/10/30 09:32:03;;;;;;;22.92;12.25;;;19.20;46.50;;;;;;5000227;28;20037;-56
2022/10/30 09:34:29;;;;;;;26.42;12.38;;;19.00;51.60;;;;;;5003043;28;20046;-56
2022/10/30 09:36:55;;;;;;;27.95;11.90;;;18.70;61.20;;;;;;4998956;28;21101;-56
2022/10/30 09:39:21;;;;;;;30.08;12.38;;;18.10;71.10;;;;;;5002379;28;20058;-56
2022/10/30 09:42:11;;;;;;;24.92;11.68;;;18.00;85.40;;;;;;4992355;28;20050;-56
2022/10/30 09:44:46;;;;;;;25.30;12.40;;;18.00;87.60;;;;;;5003800;28;20696;-56
2022/10/30 09:47:14;;;;;;;21.13;11.75;;;17.90;92.10;;;;;;5003244;28;20045;-56
2022/10/30 09:49:46;;;;;;;22.58;12.45;;;16.70;92.80;;;;;;5005866;28;20045;-56
2022/10/30 09:52:14;;;;;;;29.98;13.45;;;17.80;94.10;;;;;;5004670;28;20103;-56
2022/10/30 09:54:55;;;;;;;23.23;12.68;;;17.50;96.50;;;;;;5003151;28;20140;-56
2022/10/30 09:57:31;;;;;;;25.55;13.13;;;17.70;98.30;;;;;;5005852;28;20045;-56
2022/10/30 10:00:19;;;;;;;23.40;11.60;;;17.30;98.90;;;;;;5004841;28;20146;-56
2022/10/30 10:03:22;;;;;;;30.30;13.20;;;17.50;99.90;;;;;;5019758;28;20049;-56
2022/10/30 10:05:52;;;;;;;23.17;12.27;;;17.70;99.90;;;;;;5002267;28;20544;-56
2022/10/30 10:08:22;;;;;;;21.70;12.18;;;17.50;99.90;;;;;;5006024;28;20052;-56
2022/10/30 10:10:56;;;;;;;24.10;12.20;;;17.70;99.90;;;;;;5006438;28;20037;-56
2022/10/30 10:13:31;;;;;;;23.25;12.07;;;17.40;99.90;;;;;;5005037;28;20104;-56
2022/10/30 10:16:35;;;;;;;22.65;11.43;;;17.50;99.90;;;;;;5004624;28;20864;-56
2022/10/30 10:19:07;;;;;;;24.17;11.07;;;17.60;99.90;;;;;;5004407;28;20046;-57
2022/10/30 10:21:41;;;;;;;20.63;11.55;;;17.60;99.90;;;;;;5003987;28;20041;-56
2022/10/30 10:24:21;;;;;;;22.15;11.48;;;17.70;99.90;;;;;;5005133;28;20063;-56
2022/10/30 10:26:49;;;;;;;20.98;10.93;;;17.80;99.90;;;;;;5004029;28;20077;-56
2022/10/30 10:29:44;;;;;;;24.25;10.68;;;17.80;99.90;;;;;;5001593;28;20604;-56
2022/10/30 10:32:31;;;;;;;18.40;10.50;;;17.90;99.90;;;;;;4989312;28;20700;-56
2022/10/30 10:35:34;;;;;;;20.42;10.98;;;18.00;98.10;;;;;;4998555;28;20126;-56
2022/10/30 10:38:21;;;;;;;21.95;11.57;;;19.40;96.60;;;;;;5001695;28;20041;-56
2022/10/30 10:40:53;;;;;;;25.23;11.82;;;18.10;99.80;;;;;;5005422;28;20073;-55
2022/10/30 10:43:54;;;;;;;22.58;13.90;;;18.10;99.90;;;;;;4997772;28;20102;-56
2022/10/30 10:46:30;;;;;;;22.38;11.73;;;18.30;99.90;;;;;;4991060;28;20092;-56
2022/10/30 10:49:23;;;;;;;24.63;11.90;;;18.40;99.90;;;;;;4999582;28;20053;-56
2022/10/30 10:52:17;;;;;;;23.00;12.07;;;18.30;98.30;;;;;;4989938;28;20037;-56
2022/10/30 10:54:48;;;;;;;24.40;10.32;;;18.60;95.10;;;;;;4989602;28;20153;-56
2022/10/30 10:57:28;;;;;;;22.53;10.57;;;18.60;98.30;;;;;;4996891;28;20041;-56
2022/10/30 11:00:18;;;;;;;22.23;10.57;;;18.60;97.30;;;;;;4993503;28;20045;-56
2022/10/30 11:03:14;;;;;;;20.00;11.32;;;18.50;97.80;;;;;;4990173;28;20050;-56
2022/10/30 11:05:53;;;;;;;18.67;10.68;;;18.70;98.10;;;;;;4992267;28;20046;-53
2022/10/30 11:08:33;;;;;;;26.00;10.65;;;18.70;97.90;;;;;;4999209;28;20124;-57
2022/10/30 11:11:05;;;;;;;26.48;10.85;;;18.60;99.20;;;;;;4989340;28;20485;-56
2022/10/30 11:13:39;;;;;;;18.02;10.13;;;18.80;99.00;;;;;;4999013;28;20407;-56
2022/10/30 11:16:24;;;;;;;19.98;8.98;;;19.00;98.90;;;;;;4990337;28;20175;-56
2022/10/30 11:18:58;;;;;;;17.17;8.60;;;19.00;96.30;;;;;;4997563;28;20535;-56
2022/10/30 11:21:25;;;;;;;22.65;11.10;;;19.10;94.80;;;;;;4996528;28;20504;-56
2022/10/30 11:23:52;;;;;;;19.40;9.57;;;19.30;94.60;;;;;;4997287;28;20042;-55
2022/10/30 11:26:17;;;;;;;20.63;10.25;;;19.30;94.60;;;;;;4992648;28;20507;-56
2022/10/30 11:29:17;;;;;;;20.45;9.85;;;19.40;95.10;;;;;;4997306;28;20042;-55
2022/10/30 11:31:43;;;;;;;24.60;11.43;;;19.30;92.30;;;;;;4993990;28;20038;-56
2022/10/30 11:34:14;;;;;;;16.25;9.00;;;19.20;94.10;;;;;;4996401;28;20408;-56
2022/10/30 11:36:40;;;;;;;19.25;9.57;;;19.40;94.60;;;;;;4993491;28;20042;-56
2022/10/30 11:39:26;;;;;;;20.38;9.52;;;19.40;92.70;;;;;;5006863;28;20049;-55
2022/10/30 11:41:56;;;;;;;20.55;9.88;;;19.50;87.00;;;;;;5002959;28;20038;-56
2022/10/30 11:44:33;;;;;;;18.30;9.35;;;19.40;91.30;;;;;;5002959;28;20124;-56
2022/10/30 11:47:00;;;;;;;27.83;10.02;;;19.60;91.10;;;;;;5003404;28;20507;-56
2022/10/30 11:49:36;;;;;;;22.40;10.30;;;19.50;90.20;;;;;;5005471;28;20121;-56
2022/10/30 11:52:03;;;;;;;21.23;10.18;;;19.50;91.20;;;;;;5001708;28;20034;-56
2022/10/30 11:54:28;;;;;;;19.85;9.75;;;19.40;91.80;;;;;;5001885;28;20419;-55
2022/10/30 11:56:55;;;;;;;18.75;10.10;;;19.40;91.90;;;;;;5001580;28;20061;-56
2022/10/30 11:59:23;;;;;;;20.35;9.70;;;19.50;91.10;;;;;;5003215;28;20746;-56
2022/10/30 12:02:17;;;;;;;19.95;10.25;;;19.50;91.10;;;;;;5005992;28;20420;-56
2022/10/30 12:04:43;;;;;;;16.02;9.40;;;19.50;88.80;;;;;;5007336;28;20754;-56
2022/10/30 12:07:24;;;;;;;21.83;9.32;;;19.40;91.40;;;;;;5007261;28;20150;-56
2022/10/30 12:09:50;;;;;;;19.52;9.52;;;19.40;90.20;;;;;;5007130;28;20077;-56
2022/10/30 12:12:51;;;;;;;18.48;8.45;;;19.20;90.90;;;;;;5003332;28;20153;-56
2022/10/30 12:15:20;;;;;;;16.73;8.57;;;19.30;83.50;;;;;;5042571;28;21375;-57
2022/10/30 12:17:54;;;;;;;20.02;9.80;;;19.30;89.40;;;;;;5009959;28;20053;-56
2022/10/30 12:20:20;;;;;;;23.25;10.95;;;19.30;91.30;;;;;;4994963;28;20053;-56
2022/10/30 12:22:45;;;;;;;20.27;9.13;;;19.20;93.00;;;;;;4996416;28;20065;-56
2022/10/30 12:25:30;;;;;;;17.55;8.95;;;19.30;94.00;;;;;;4996207;28;20059;-56
2022/10/30 12:28:17;;;;;;;18.88;8.52;;;19.20;92.70;;;;;;4992508;28;20963;-56
2022/10/30 12:30:48;;;;;;;18.00;9.00;;;19.20;92.50;;;;;;4997607;28;20037;-56
2022/10/30 12:33:19;;;;;;;26.45;9.45;;;19.40;94.00;;;;;;4999497;28;20982;-56
2022/10/30 12:36:00;;;;;;;21.27;10.18;;;19.30;93.60;;;;;;5002530;28;20049;-56
2022/10/30 12:38:38;;;;;;;20.55;9.55;;;19.30;93.40;;;;;;5004969;28;20059;-56
2022/10/30 12:41:30;;;;;;;18.88;10.02;;;19.20;95.80;;;;;;5011558;28;20465;-56